Time;durP1;ratioP1;P1;durP2;ratioP2;P2;SDS_P1;SDS_P2;PMS_P1;PMS_P2;Temp;Humidity;BMP_temperature;BMP_pressure;BME280_temperature;BME280_humidity;BME280_pressure;Samples;Min_cycle;Max_cycle;Signal;HPM_P1;HPM_P2
2024/02/13 00:02:03;;;;;;;9.18;5.22;;;;;;;8.42;100.00;98933.72;6287481;28;20110;-72
2024/02/13 00:05:08;;;;;;;12.32;6.07;;;;;;;8.10;100.00;98941.13;6278076;28;20049;-71
2024/02/13 00:08:10;;;;;;;9.40;5.22;;;;;;;8.26;100.00;98934.75;6283734;28;20060;-71
2024/02/13 00:11:13;;;;;;;9.85;5.93;;;;;;;8.30;100.00;98945.78;6271869;28;20510;-72
2024/02/13 00:14:13;;;;;;;;;;;;;;;8.19;100.00;98940.47;6281984;28;20044;-71
2024/02/13 00:17:15;;;;;;;8.25;5.00;;;;;;;8.32;100.00;98938.72;6275913;28;19925;-72
2024/02/13 00:20:17;;;;;;;10.35;4.85;;;;;;;8.24;100.00;98946.19;6286860;28;20072;-72
2024/02/13 00:23:18;;;;;;;6.53;4.32;;;;;;;8.39;100.00;98945.13;6284670;28;20077;-71
2024/02/13 00:26:22;;;;;;;9.32;4.40;;;;;;;8.27;100.00;98953.78;6281133;28;20076;-72
2024/02/13 00:29:23;;;;;;;7.93;4.70;;;;;;;8.28;100.00;98961.47;6292193;28;20052;-72
2024/02/13 00:32:24;;;;;;;6.90;4.50;;;;;;;8.39;100.00;98963.31;6294057;28;20079;-72
2024/02/13 00:35:25;;;;;;;8.07;4.53;;;;;;;8.54;100.00;98960.63;6290146;28;20049;-71
2024/02/13 00:38:29;;;;;;;6.23;3.97;;;;;;;8.62;100.00;98955.72;6274321;28;20053;-72
2024/02/13 00:41:30;;;;;;;6.75;3.95;;;;;;;8.58;100.00;98960.28;6269168;28;20064;-71
2024/02/13 00:44:30;;;;;;;5.88;4.10;;;;;;;8.71;100.00;98960.28;6269946;28;20476;-71
2024/02/13 00:47:31;;;;;;;5.22;3.45;;;;;;;8.63;100.00;98960.00;6269331;28;20505;-72
2024/02/13 00:50:32;;;;;;;8.65;3.88;;;;;;;8.61;100.00;98959.28;6284050;28;20071;-71
2024/02/13 00:53:36;;;;;;;5.28;3.35;;;;;;;8.56;100.00;98959.56;6290412;28;20045;-71
2024/02/13 00:56:36;;;;;;;4.97;3.30;;;;;;;8.50;100.00;98967.78;6292733;28;20447;-72
2024/02/13 00:59:37;;;;;;;5.80;3.60;;;;;;;8.61;100.00;98967.06;6272072;28;20106;-72
2024/02/13 01:02:40;;;;;;;7.68;3.78;;;;;;;8.53;100.00;98972.81;6283141;28;20044;-71
2024/02/13 01:05:42;;;;;;;4.55;3.15;;;;;;;8.57;100.00;98966.44;6292976;28;20387;-72
2024/02/13 01:08:43;;;;;;;4.82;3.20;;;;;;;8.51;100.00;98966.88;6283455;28;20053;-72
2024/02/13 01:11:44;;;;;;;6.30;3.50;;;;;;;8.61;100.00;98960.09;6268597;28;20279;-71
2024/02/13 01:14:48;;;;;;;5.43;3.42;;;;;;;8.44;100.00;98965.63;6271998;28;20139;-72
2024/02/13 01:17:49;;;;;;;4.50;2.88;;;;;;;8.54;100.00;98974.44;6268997;28;20057;-71
2024/02/13 01:20:50;;;;;;;5.15;3.15;;;;;;;8.54;100.00;98966.66;6269907;28;20049;-72
2024/02/13 01:23:51;;;;;;;6.22;3.53;;;;;;;8.62;100.00;98971.31;6270919;28;20052;-71
2024/02/13 01:26:53;;;;;;;4.10;2.95;;;;;;;8.41;100.00;98976.25;6278928;28;20083;-71
2024/02/13 01:29:54;;;;;;;4.55;3.03;;;;;;;8.36;100.00;98986.09;6270115;28;20049;-71
2024/02/13 01:32:55;;;;;;;8.00;3.50;;;;;;;8.44;100.00;98986.41;6269924;28;20088;-72
2024/02/13 01:35:58;;;;;;;5.25;3.40;;;;;;;8.45;100.00;98991.53;6284268;28;20338;-72
2024/02/13 01:39:03;;;;;;;4.10;3.03;;;;;;;8.51;100.00;98989.44;6281112;28;20550;-72
2024/02/13 01:42:03;;;;;;;5.95;2.97;;;;;;;8.43;100.00;98993.41;6273695;28;20453;-76
2024/02/13 01:45:07;;;;;;;5.60;3.38;;;;;;;8.39;100.00;98998.88;6286937;28;20060;-76
2024/02/13 01:48:10;;;;;;;7.93;3.88;;;;;;;8.66;100.00;98994.41;6297536;28;20048;-76
2024/02/13 01:51:13;;;;;;;6.13;3.72;;;;;;;8.63;100.00;99007.63;6295310;28;20093;-76
2024/02/13 01:54:14;;;;;;;;;;;;;;;8.62;100.00;99005.13;6284111;28;20051;-76
2024/02/13 01:57:14;;;;;;;4.93;2.90;;;;;;;8.43;100.00;99009.00;6278164;28;19932;-77
2024/02/13 02:00:16;;;;;;;4.00;2.67;;;;;;;8.36;100.00;99006.88;6277766;28;20136;-76
2024/02/13 02:03:17;;;;;;;6.57;3.33;;;;;;;8.38;100.00;99011.06;6273397;28;20496;-76
2024/02/13 02:06:19;;;;;;;4.77;2.80;;;;;;;8.34;100.00;99013.94;6272316;28;20286;-76
2024/02/13 02:09:20;;;;;;;7.60;3.58;;;;;;;8.23;100.00;99014.69;6296027;28;20051;-71
2024/02/13 02:12:20;;;;;;;5.97;3.40;;;;;;;8.26;100.00;99015.31;6282439;28;20049;-72
2024/02/13 02:15:23;;;;;;;6.22;3.50;;;;;;;8.19;100.00;99027.06;6297458;28;20060;-72
2024/02/13 02:18:25;;;;;;;5.82;3.53;;;;;;;8.30;100.00;99021.16;6285874;28;20049;-72
2024/02/13 02:21:27;;;;;;;4.55;3.33;;;;;;;8.23;100.00;99025.09;6273445;28;20052;-71
2024/02/13 02:24:27;;;;;;;4.88;3.30;;;;;;;8.39;100.00;99035.28;6271823;28;20049;-72
2024/02/13 02:27:28;;;;;;;6.03;3.65;;;;;;;8.45;100.00;99035.72;6293439;28;20094;-71
2024/02/13 02:30:29;;;;;;;7.43;3.33;;;;;;;8.34;100.00;99034.75;6280387;28;20049;-76
2024/02/13 02:33:30;;;;;;;6.95;3.95;;;;;;;8.48;100.00;99034.66;6273223;28;20070;-76
2024/02/13 02:36:32;;;;;;;6.57;3.83;;;;;;;8.52;100.00;99035.28;6287491;28;20547;-76
2024/02/13 02:39:33;;;;;;;5.00;3.47;;;;;;;8.51;100.00;99039.66;6286607;28;20075;-76
2024/02/13 02:42:36;;;;;;;5.65;3.60;;;;;;;8.46;100.00;99046.94;6273004;28;20480;-71
2024/02/13 02:45:37;;;;;;;6.82;3.97;;;;;;;8.46;100.00;99039.13;6271429;28;20045;-72
2024/02/13 02:48:37;;;;;;;7.78;4.35;;;;;;;8.43;100.00;99044.56;6308658;28;20490;-71
2024/02/13 02:51:38;;;;;;;5.90;3.65;;;;;;;8.35;100.00;99057.22;6274066;28;20479;-72
2024/02/13 02:54:41;;;;;;;6.00;3.90;;;;;;;8.33;100.00;99046.09;6274128;28;20132;-71
2024/02/13 02:57:42;;;;;;;7.15;3.92;;;;;;;8.41;100.00;99049.84;6273063;28;20052;-72
2024/02/13 03:00:43;;;;;;;7.50;3.70;;;;;;;8.29;100.00;99048.06;6277168;28;20041;-72
2024/02/13 03:03:44;;;;;;;6.53;4.28;;;;;;;8.50;100.00;99060.56;6271195;28;20384;-72
2024/02/13 03:06:45;;;;;;;8.05;4.13;;;;;;;8.50;100.00;99063.16;6284209;28;20159;-72
2024/02/13 03:09:45;;;;;;;8.25;4.32;;;;;;;8.55;100.00;99068.91;6283676;28;20518;-72
2024/02/13 03:12:46;;;;;;;7.57;4.43;;;;;;;8.46;100.00;99070.34;6272507;28;20049;-73
2024/02/13 03:15:47;;;;;;;6.88;4.70;;;;;;;8.46;100.00;99070.34;6274624;28;20056;-73
2024/02/13 03:18:48;;;;;;;9.13;5.05;;;;;;;8.48;100.00;99076.25;6269572;28;20057;-72
2024/02/13 03:21:49;;;;;;;6.75;3.95;;;;;;;8.46;100.00;99070.34;6280094;28;20221;-72
2024/02/13 03:24:49;;;;;;;9.63;4.65;;;;;;;8.39;100.00;99079.47;6272812;28;20053;-72
2024/02/13 03:27:50;;;;;;;5.78;3.88;;;;;;;8.46;100.00;99081.59;6282554;28;20052;-72
2024/02/13 03:30:56;;;;;;;6.03;3.40;;;;;;;8.50;100.00;99081.38;6272294;28;20049;-72
2024/02/13 03:33:57;;;;;;;8.48;4.30;;;;;;;8.45;100.00;99079.09;6271399;28;20122;-73
2024/02/13 03:36:58;;;;;;;8.43;5.00;;;;;;;8.54;100.00;99094.03;6276919;28;20550;-73
2024/02/13 03:39:59;;;;;;;7.75;4.15;;;;;;;8.52;100.00;99087.28;6273147;28;20040;-72
2024/02/13 03:43:00;;;;;;;8.68;4.65;;;;;;;8.60;100.00;99085.81;6267938;28;20484;-76
2024/02/13 03:46:01;;;;;;;6.18;4.05;;;;;;;8.58;100.00;99082.50;6269371;28;20072;-76
2024/02/13 03:49:02;;;;;;;14.23;4.70;;;;;;;8.62;100.00;99089.16;6271351;28;20050;-76
2024/02/13 03:52:03;;;;;;;8.23;4.15;;;;;;;8.62;100.00;99088.34;6269900;28;20048;-76
2024/02/13 03:55:05;;;;;;;6.53;4.30;;;;;;;8.59;100.00;99096.34;6272910;28;20055;-76
2024/02/13 03:58:06;;;;;;;;;;;;;;;8.61;100.00;99102.28;6270265;28;20450;-72
2024/02/13 04:01:08;;;;;;;6.75;3.50;;;;;;;8.64;100.00;99102.88;6269653;28;20374;-76
2024/02/13 04:04:09;;;;;;;6.95;3.83;;;;;;;8.75;100.00;99109.97;6270317;28;20419;-76
2024/02/13 04:07:10;;;;;;;5.53;3.20;;;;;;;8.66;100.00;99098.41;6270568;28;20056;-76
2024/02/13 04:10:11;;;;;;;6.53;3.55;;;;;;;8.80;100.00;99101.84;6278979;28;20131;-76
2024/02/13 04:13:11;;;;;;;6.45;3.33;;;;;;;8.81;100.00;99106.97;6273717;28;20118;-76
2024/02/13 04:16:13;;;;;;;7.85;3.33;;;;;;;8.82;100.00;99106.00;6270789;28;20080;-76
2024/02/13 04:19:14;;;;;;;5.30;2.80;;;;;;;8.84;100.00;99104.13;6269950;28;20041;-71
2024/02/13 04:22:15;;;;;;;5.53;3.17;;;;;;;8.95;100.00;99111.19;6270923;28;20450;-71
2024/02/13 04:25:16;;;;;;;4.13;2.83;;;;;;;8.88;100.00;99102.97;6286140;28;20075;-71
2024/02/13 04:28:20;;;;;;;7.47;3.85;;;;;;;8.94;100.00;99106.94;6268973;28;20519;-72
2024/02/13 04:31:21;;;;;;;7.45;3.60;;;;;;;8.83;100.00;99112.03;6283187;28;20041;-72
2024/02/13 04:34:21;;;;;;;6.43;3.47;;;;;;;8.84;100.00;99109.34;6269038;28;20065;-76
2024/02/13 04:37:23;;;;;;;5.40;3.42;;;;;;;8.88;100.00;99118.59;6270993;28;20053;-77
2024/02/13 04:40:23;;;;;;;6.53;3.70;;;;;;;8.94;100.00;99126.94;6271761;28;20052;-76
2024/02/13 04:43:25;;;;;;;11.07;4.43;;;;;;;8.81;100.00;99132.97;6273100;28;20049;-76
2024/02/13 04:46:26;;;;;;;4.70;3.20;;;;;;;8.85;100.00;99133.56;6273381;28;20837;-76
2024/02/13 04:49:26;;;;;;;5.53;3.13;;;;;;;8.83;100.00;99135.44;6268576;28;20293;-72
2024/02/13 04:52:28;;;;;;;5.85;4.22;;;;;;;8.96;100.00;99138.06;6272290;28;20047;-71
2024/02/13 04:55:32;;;;;;;9.73;3.83;;;;;;;8.91;100.00;99132.31;6274610;28;20407;-72
2024/02/13 04:58:33;;;;;;;6.68;3.92;;;;;;;8.80;100.00;99143.47;6306267;28;20483;-72
2024/02/13 05:01:39;;;;;;;8.00;4.22;;;;;;;8.79;100.00;99141.78;6271228;28;20103;-72
2024/02/13 05:08:01;;;;;;;8.40;3.70;;;;;;;8.98;100.00;99139.59;6293994;28;20522;-72
2024/02/13 05:11:02;;;;;;;6.40;3.63;;;;;;;8.93;100.00;99141.69;6292527;28;20501;-71
2024/02/13 05:14:03;;;;;;;8.15;3.80;;;;;;;8.96;100.00;99149.28;6283711;28;20053;-72
2024/02/13 05:17:04;;;;;;;6.50;3.55;;;;;;;8.82;100.00;99159.81;6275157;28;20095;-72
2024/02/13 05:20:11;;;;;;;7.00;3.15;;;;;;;8.79;100.00;99162.59;6298730;28;20049;-72
2024/02/13 05:23:12;;;;;;;11.75;3.42;;;;;;;8.85;100.00;99157.84;6299835;28;20105;-71
2024/02/13 05:26:14;;;;;;;7.72;3.67;;;;;;;8.77;100.00;99167.94;6299962;28;20056;-71
2024/02/13 05:29:14;;;;;;;9.07;4.05;;;;;;;8.92;100.00;99176.47;6292867;28;20052;-71
2024/02/13 05:32:16;;;;;;;7.07;3.72;;;;;;;8.88;100.00;99182.81;6298020;28;20079;-71
2024/02/13 05:35:19;;;;;;;7.70;4.13;;;;;;;8.70;100.00;99184.88;6290759;28;20045;-76
2024/02/13 05:38:22;;;;;;;6.10;3.30;;;;;;;8.79;100.00;99192.06;6276560;28;20049;-71
2024/02/13 05:41:25;;;;;;;7.43;3.58;;;;;;;8.95;100.00;99194.44;6299668;28;20084;-76
2024/02/13 05:44:26;;;;;;;8.48;3.70;;;;;;;8.88;100.00;99195.81;6296652;28;20052;-76
2024/02/13 05:47:34;;;;;;;6.45;3.80;;;;;;;8.84;100.00;99197.78;6274736;28;20476;-72
2024/02/13 05:50:35;;;;;;;6.53;3.30;;;;;;;8.87;100.00;99204.53;6282490;28;20131;-71
2024/02/13 05:53:36;;;;;;;5.22;3.00;;;;;;;8.75;100.00;99200.16;6298687;28;20049;-71
2024/02/13 05:56:38;;;;;;;6.57;3.05;;;;;;;8.86;100.00;99214.13;6292089;28;20491;-71
2024/02/13 05:59:40;;;;;;;6.50;3.40;;;;;;;8.88;100.00;99227.03;6280394;28;20055;-71
2024/02/13 06:02:41;;;;;;;6.15;2.97;;;;;;;8.72;100.00;99240.22;6274251;28;20159;-71
2024/02/13 06:05:44;;;;;;;4.65;2.95;;;;;;;8.83;100.00;99245.56;6274085;28;20575;-71
2024/02/13 06:08:45;;;;;;;5.18;3.15;;;;;;;8.82;100.00;99253.44;6274058;28;20535;-72
2024/02/13 06:11:48;;;;;;;7.28;3.28;;;;;;;8.79;100.00;99258.84;6273859;28;20051;-71
2024/02/13 06:14:49;;;;;;;5.10;3.03;;;;;;;8.91;100.00;99265.84;6272606;28;20053;-72
2024/02/13 06:17:50;;;;;;;6.20;3.60;;;;;;;8.83;100.00;99276.78;6272864;28;20049;-72
2024/02/13 06:20:51;;;;;;;5.75;3.33;;;;;;;8.73;100.00;99270.50;6273761;28;20095;-76
2024/02/13 06:23:52;;;;;;;9.77;3.63;;;;;;;8.79;100.00;99280.50;6273192;28;20557;-76
2024/02/13 06:26:53;;;;;;;6.30;3.20;;;;;;;8.80;100.00;99287.38;6272453;28;20498;-72
2024/02/13 06:29:54;;;;;;;6.25;3.42;;;;;;;8.73;100.00;99293.91;6273220;28;20102;-71
2024/02/13 06:32:55;;;;;;;6.32;3.17;;;;;;;8.82;99.33;99302.88;6273699;28;20183;-76
2024/02/13 06:35:56;;;;;;;6.82;3.67;;;;;;;8.80;99.89;99305.56;6272147;28;20095;-76
2024/02/13 06:38:57;;;;;;;6.93;3.47;;;;;;;8.86;99.18;99306.94;6273588;28;20124;-76
2024/02/13 06:41:58;;;;;;;7.00;3.25;;;;;;;8.65;99.48;99312.63;6273417;28;20059;-76
2024/02/13 06:44:58;;;;;;;7.03;3.70;;;;;;;8.76;97.98;99319.72;6273397;28;20048;-71
2024/02/13 06:48:00;;;;;;;6.35;3.65;;;;;;;8.74;98.02;99318.97;6271873;28;20127;-76
2024/02/13 06:51:02;;;;;;;10.35;3.75;;;;;;;8.70;97.27;99316.69;6272992;28;20048;-76
2024/02/13 06:54:04;;;;;;;20.35;3.25;;;;;;;8.65;97.39;99322.19;6272893;28;20053;-76
2024/02/13 06:57:07;;;;;;;6.67;3.63;;;;;;;8.85;97.60;99331.28;6271650;28;20495;-76
2024/02/13 07:00:13;;;;;;;4.82;2.70;;;;;;;8.79;96.68;99342.94;6272982;28;20319;-76
2024/02/13 07:03:14;;;;;;;4.25;2.70;;;;;;;8.84;96.62;99335.66;6271529;28;20059;-76
2024/02/13 07:06:18;;;;;;;8.00;4.20;;;;;;;8.84;96.80;99335.66;6272785;28;20048;-76
2024/02/13 07:09:19;;;;;;;5.70;3.67;;;;;;;8.99;96.25;99344.22;6271422;28;20056;-71
2024/02/13 07:12:20;;;;;;;8.48;5.25;;;;;;;8.90;96.56;99344.84;6272449;28;20136;-71
2024/02/13 07:15:21;;;;;;;9.27;4.70;;;;;;;8.96;94.97;99346.22;6272445;28;20401;-70
2024/02/13 07:18:21;;;;;;;12.90;5.35;;;;;;;8.97;93.58;99342.66;6272444;28;20049;-71
2024/02/13 07:21:24;;;;;;;11.32;5.30;;;;;;;9.20;92.80;99360.19;6271126;28;20510;-76
2024/02/13 07:24:24;;;;;;;;;;;;;;;8.89;92.27;99350.94;6272507;28;20499;-76
2024/02/13 07:27:25;;;;;;;8.20;4.68;;;;;;;9.06;91.23;99368.09;6271144;28;19950;-71
2024/02/13 07:30:26;;;;;;;9.40;4.90;;;;;;;9.02;91.12;99364.84;6270521;28;20099;-71
2024/02/13 07:33:27;;;;;;;9.88;4.60;;;;;;;9.10;90.11;99374.75;6272039;28;20579;-71
2024/02/13 07:36:28;;;;;;;7.82;3.65;;;;;;;9.15;89.46;99367.47;6271184;28;20053;-71
2024/02/13 07:39:29;;;;;;;5.30;2.72;;;;;;;8.94;88.11;99376.69;6270719;28;20534;-71
2024/02/13 07:42:30;;;;;;;8.15;2.90;;;;;;;9.02;89.09;99390.88;6271875;28;20052;-71
2024/02/13 07:45:31;;;;;;;6.35;2.88;;;;;;;9.23;88.02;99390.41;6271986;28;20520;-72
2024/02/13 07:48:33;;;;;;;4.43;2.45;;;;;;;8.91;87.87;99388.13;6271645;28;20052;-72
2024/02/13 07:51:37;;;;;;;6.15;3.03;;;;;;;9.18;87.56;99403.72;6270401;28;20407;-71
2024/02/13 07:54:40;;;;;;;8.98;3.65;;;;;;;9.23;86.19;99406.00;6270368;28;20075;-71
2024/02/13 07:57:41;;;;;;;5.57;3.35;;;;;;;9.31;86.71;99411.56;6270271;28;20411;-72
2024/02/13 08:00:43;;;;;;;8.48;3.13;;;;;;;9.30;85.57;99406.44;6270297;28;20071;-71
2024/02/13 08:03:45;;;;;;;5.43;2.53;;;;;;;9.37;84.07;99418.97;6271365;28;20053;-71
2024/02/13 08:06:46;;;;;;;4.28;2.05;;;;;;;9.29;83.58;99421.25;6271196;28;20436;-71
2024/02/13 08:09:47;;;;;;;6.03;2.63;;;;;;;9.26;83.19;99424.03;6271126;28;20127;-71
2024/02/13 08:12:48;;;;;;;3.25;2.15;;;;;;;9.41;82.25;99435.19;6271377;28;20056;-71
2024/02/13 08:15:51;;;;;;;3.85;1.77;;;;;;;9.25;80.93;99430.19;6269959;28;20435;-71
2024/02/13 08:18:52;;;;;;;3.28;1.60;;;;;;;9.19;79.92;99435.78;6270198;28;20059;-76
2024/02/13 08:21:52;;;;;;;4.88;2.33;;;;;;;9.19;79.93;99434.00;6270084;28;20084;-75
2024/02/13 08:24:53;;;;;;;2.25;1.50;;;;;;;9.22;79.11;99433.78;6270924;28;20076;-76
2024/02/13 08:27:54;;;;;;;3.72;1.60;;;;;;;9.41;78.24;99441.25;6271297;28;20045;-76
2024/02/13 08:30:55;;;;;;;2.63;1.65;;;;;;;9.46;77.95;99441.78;6269386;28;20053;-76
2024/02/13 08:33:56;;;;;;;4.28;1.65;;;;;;;9.37;77.31;99444.13;6271056;28;20064;-76
2024/02/13 08:36:58;;;;;;;2.88;1.40;;;;;;;9.57;77.44;99451.47;6270742;28;20403;-76
2024/02/13 08:39:58;;;;;;;2.85;1.67;;;;;;;9.45;76.58;99457.50;6271007;28;20073;-76
2024/02/13 08:42:59;;;;;;;1.98;1.48;;;;;;;9.56;76.90;99449.81;6270814;28;20460;-76
2024/02/13 08:46:00;;;;;;;2.40;1.58;;;;;;;9.47;77.15;99463.44;6272575;28;20053;-71
2024/02/13 08:49:01;;;;;;;4.85;1.70;;;;;;;9.76;77.32;99461.53;6275697;28;20088;-71
2024/02/13 08:52:02;;;;;;;3.63;2.10;;;;;;;9.67;76.44;99460.34;6275973;28;20048;-71
2024/02/13 08:55:04;;;;;;;3.25;1.88;;;;;;;9.45;76.53;99462.69;6275734;28;20048;-71
2024/02/13 08:58:04;;;;;;;2.45;1.35;;;;;;;9.53;75.88;99468.25;6275631;28;20380;-71
2024/02/13 09:01:05;;;;;;;4.65;2.08;;;;;;;9.67;76.50;99475.16;6275630;28;20098;-71
2024/02/13 09:04:06;;;;;;;4.55;1.35;;;;;;;9.76;75.93;99481.50;6275567;28;20060;-76
2024/02/13 09:07:07;;;;;;;2.38;1.40;;;;;;;9.55;75.68;99482.00;6274472;28;20056;-76
2024/02/13 09:10:12;;;;;;;2.92;2.03;;;;;;;9.73;76.12;99484.34;6274070;28;20059;-70
2024/02/13 09:13:15;;;;;;;5.00;2.03;;;;;;;9.57;75.55;99487.09;6274250;28;20060;-76
2024/02/13 09:16:16;;;;;;;4.53;1.95;;;;;;;9.78;75.05;99492.66;6275213;28;20088;-76
2024/02/13 09:19:16;;;;;;;3.45;1.42;;;;;;;9.96;75.24;99496.66;6274324;28;20052;-76
2024/02/13 09:22:19;;;;;;;2.05;1.40;;;;;;;9.83;74.35;99507.06;6275289;28;20049;-76
2024/02/13 09:25:23;;;;;;;3.10;1.73;;;;;;;10.05;75.33;99500.44;6274950;28;20141;-76
2024/02/13 09:28:23;;;;;;;2.58;1.73;;;;;;;9.89;74.65;99509.25;6274972;28;20053;-76
2024/02/13 09:31:24;;;;;;;2.58;1.42;;;;;;;9.68;74.44;99508.09;6273607;28;20045;-76
2024/02/13 09:34:28;;;;;;;6.22;1.73;;;;;;;10.07;73.86;99522.00;6273621;28;20059;-76
2024/02/13 09:37:29;;;;;;;2.08;1.27;;;;;;;9.88;73.16;99525.84;6274883;28;20049;-76
2024/02/13 09:40:32;;;;;;;2.05;1.30;;;;;;;10.05;72.79;99518.66;6273499;28;20095;-76
2024/02/13 09:43:33;;;;;;;2.22;1.13;;;;;;;10.59;72.21;99538.50;6274582;28;20132;-76
2024/02/13 09:46:36;;;;;;;1.92;1.17;;;;;;;10.36;69.84;99529.66;6274719;28;20048;-76
2024/02/13 09:49:40;;;;;;;2.95;1.40;;;;;;;10.31;70.58;99537.78;6274403;28;20056;-76
2024/02/13 09:52:57;;;;;;;2.33;1.60;;;;;;;10.18;71.13;99540.34;6274644;28;20045;-76
2024/02/13 09:55:58;;;;;;;5.07;1.48;;;;;;;10.40;70.21;99531.94;6274358;28;20056;-70
2024/02/13 09:59:00;;;;;;;2.95;1.25;;;;;;;10.57;70.69;99532.56;6273507;28;20056;-71
2024/02/13 10:02:01;;;;;;;3.33;1.75;;;;;;;10.31;71.00;99542.16;6273026;28;20049;-70
2024/02/13 10:05:02;;;;;;;5.55;1.85;;;;;;;10.48;70.14;99537.47;6272929;28;20487;-76
2024/02/13 10:08:05;;;;;;;1.58;1.02;;;;;;;10.54;70.43;99540.59;6272731;28;20098;-76
2024/02/13 10:11:14;;;;;;;2.83;1.45;;;;;;;10.40;69.59;99539.78;6273869;28;20483;-76
2024/02/13 10:14:21;;;;;;;2.28;1.65;;;;;;;10.58;68.18;99545.47;6273705;28;20537;-76
2024/02/13 10:17:22;;;;;;;4.97;1.50;;;;;;;10.60;68.18;99527.94;6273719;28;20052;-76
2024/02/13 10:20:23;;;;;;;2.25;1.60;;;;;;;11.24;67.78;99535.63;6273043;28;20256;-76
2024/02/13 10:23:29;;;;;;;3.08;1.40;;;;;;;11.15;67.16;99533.66;6273752;28;20198;-76
2024/02/13 10:26:34;;;;;;;3.72;1.63;;;;;;;11.07;67.21;99542.03;6273728;28;20049;-76
2024/02/13 10:29:45;;;;;;;1.92;1.10;;;;;;;10.80;66.47;99554.44;6272005;28;20075;-76
2024/02/13 10:32:46;;;;;;;3.60;1.77;;;;;;;11.16;66.81;99545.78;6272504;28;20057;-70
2024/02/13 10:35:52;;;;;;;3.47;1.70;;;;;;;11.11;67.02;99537.44;6272144;28;20562;-70
2024/02/13 10:39:00;;;;;;;1.90;1.45;;;;;;;11.08;66.44;99548.13;6273385;28;20053;-71
2024/02/13 10:42:08;;;;;;;2.53;1.52;;;;;;;11.11;66.25;99542.66;6273374;28;20045;-71
2024/02/13 10:45:14;;;;;;;1.65;1.40;;;;;;;10.76;66.38;99552.97;6273430;28;20144;-76
2024/02/13 10:48:40;;;;;;;2.25;1.33;;;;;;;11.05;65.49;99554.38;6273071;28;20051;-71
2024/02/13 10:51:41;;;;;;;2.35;1.60;;;;;;;11.09;65.12;99544.53;6272951;28;20041;-71
2024/02/13 10:54:47;;;;;;;3.20;1.88;;;;;;;11.12;63.64;99549.56;6271813;28;20052;-70
2024/02/13 10:57:52;;;;;;;2.65;1.77;;;;;;;11.23;63.14;99552.22;6273076;28;20053;-71
2024/02/13 11:00:58;;;;;;;4.68;2.38;;;;;;;10.93;63.94;99549.19;6271623;28;20483;-71
2024/02/13 11:04:00;;;;;;;1.90;1.25;;;;;;;10.86;64.77;99547.00;6272957;28;20130;-71
2024/02/13 11:07:02;;;;;;;2.15;1.33;;;;;;;11.25;63.55;99552.13;6272641;28;20050;-71
2024/02/13 11:10:06;;;;;;;2.22;1.33;;;;;;;10.99;62.59;99548.75;6271681;28;20041;-71
2024/02/13 11:13:10;;;;;;;1.60;1.20;;;;;;;10.94;62.83;99551.69;6272460;28;20118;-71
2024/02/13 11:16:13;;;;;;;3.15;1.50;;;;;;;10.91;61.75;99546.69;6271189;28;20454;-71
2024/02/13 11:19:17;;;;;;;2.20;1.33;;;;;;;11.02;61.15;99548.56;6272398;28;20056;-71
2024/02/13 11:22:32;;;;;;;1.95;1.58;;;;;;;11.02;60.67;99553.78;6272579;28;20048;-70
2024/02/13 11:25:38;;;;;;;2.50;1.60;;;;;;;11.18;61.42;99543.91;6272131;28;20084;-71
2024/02/13 11:28:42;;;;;;;2.42;1.95;;;;;;;11.60;61.64;99554.78;6271769;28;20503;-71
2024/02/13 11:31:57;;;;;;;3.80;2.03;;;;;;;11.15;60.76;99540.66;6304334;28;20045;-71
2024/02/13 11:34:59;;;;;;;8.48;3.22;;;;;;;11.04;60.46;99555.31;6272287;28;20049;-71
2024/02/13 11:38:10;;;;;;;4.20;2.50;;;;;;;11.25;61.05;99546.91;6271888;28;20503;-70
2024/02/13 11:41:18;;;;;;;3.40;2.17;;;;;;;11.39;62.16;99551.97;6270893;28;20124;-71
2024/02/13 11:44:22;;;;;;;3.38;2.40;;;;;;;11.21;60.80;99553.28;6271853;28;20049;-76
2024/02/13 11:47:25;;;;;;;7.55;4.13;;;;;;;11.35;60.29;99555.75;6270709;28;20052;-76
2024/02/13 11:50:28;;;;;;;6.82;3.30;;;;;;;11.81;61.39;99554.97;6270516;28;20045;-76
2024/02/13 11:53:30;;;;;;;6.15;3.03;;;;;;;11.66;59.57;99559.56;6270495;28;20405;-76
2024/02/13 11:56:32;;;;;;;7.93;3.23;;;;;;;11.36;59.65;99541.72;6271666;28;20393;-76
2024/02/13 11:59:35;;;;;;;5.53;2.78;;;;;;;11.36;58.78;99551.34;6271455;28;20494;-76
2024/02/13 12:02:36;;;;;;;2.10;1.40;;;;;;;11.12;58.80;99551.31;6271601;28;20136;-76
2024/02/13 12:05:36;;;;;;;2.85;1.55;;;;;;;11.12;59.36;99573.06;6270178;28;20049;-76
2024/02/13 12:08:41;;;;;;;2.25;1.35;;;;;;;11.10;59.52;99572.34;6271384;28;20053;-76
2024/02/13 12:11:45;;;;;;;2.40;1.30;;;;;;;11.19;58.90;99568.22;6269936;28;20081;-76
2024/02/13 12:14:45;;;;;;;3.33;1.92;;;;;;;10.98;58.23;99565.38;6270205;28;20049;-76
2024/02/13 12:17:54;;;;;;;5.50;1.98;;;;;;;10.85;57.93;99566.22;6271147;28;20056;-76
2024/02/13 12:20:59;;;;;;;2.42;1.50;;;;;;;10.94;57.87;99577.78;6269615;28;20502;-76
2024/02/13 12:24:01;;;;;;;2.78;2.10;;;;;;;11.28;58.38;99563.19;6271138;28;20060;-76
2024/02/13 12:27:04;;;;;;;2.25;1.67;;;;;;;11.50;59.85;99574.69;6269759;28;20457;-71
2024/02/13 12:30:06;;;;;;;2.05;1.35;;;;;;;11.19;57.33;99557.78;6270637;28;20045;-70
2024/02/13 12:33:09;;;;;;;3.28;1.52;;;;;;;11.23;55.80;99564.47;6270940;28;20414;-71
2024/02/13 12:36:21;;;;;;;2.63;1.65;;;;;;;11.37;56.00;99564.31;6270866;28;20449;-70
2024/02/13 12:39:25;;;;;;;;;;;;;;;11.57;56.41;99541.97;6270019;28;20389;-71
2024/02/13 12:42:28;;;;;;;3.55;1.85;;;;;;;11.73;55.75;99562.56;6270970;28;19921;-71
2024/02/13 12:45:30;;;;;;;9.27;3.70;;;;;;;11.58;55.92;99574.97;6270739;28;20411;-72
2024/02/13 12:48:35;;;;;;;5.95;3.03;;;;;;;11.75;55.43;99576.34;6270901;28;20134;-72
2024/02/13 12:51:39;;;;;;;8.45;2.83;;;;;;;11.79;54.80;99571.72;6270634;28;20080;-71
2024/02/13 12:54:40;;;;;;;3.08;1.92;;;;;;;11.26;56.28;99574.66;6271014;28;20049;-76
2024/02/13 12:57:41;;;;;;;3.28;1.67;;;;;;;11.19;56.75;99571.66;6269262;28;20061;-76
2024/02/13 13:00:47;;;;;;;4.53;1.20;;;;;;;11.04;56.69;99585.81;6269732;28;20163;-76
2024/02/13 13:03:50;;;;;;;2.60;1.67;;;;;;;11.01;57.84;99589.47;6270672;28;20084;-76
2024/02/13 13:06:52;;;;;;;4.60;1.73;;;;;;;11.50;58.45;99583.34;6270680;28;20049;-76
2024/02/13 13:09:55;;;;;;;4.63;1.92;;;;;;;11.46;58.09;99599.38;6270575;28;20052;-76
2024/02/13 13:12:56;;;;;;;2.42;1.38;;;;;;;11.17;57.17;99591.00;6270486;28;20442;-76
2024/02/13 13:15:56;;;;;;;3.55;1.75;;;;;;;11.42;57.24;99597.94;6270407;28;20049;-77
2024/02/13 13:19:01;;;;;;;2.97;2.00;;;;;;;11.59;56.72;99602.78;6270783;28;20499;-77
2024/02/13 13:22:02;;;;;;;2.80;1.70;;;;;;;12.08;55.30;99608.81;6270404;28;20045;-76
2024/02/13 13:25:09;;;;;;;4.05;1.40;;;;;;;12.32;55.00;99618.41;6270263;28;20049;-71
2024/02/13 13:28:15;;;;;;;2.80;1.70;;;;;;;12.01;55.35;99621.53;6270062;28;20103;-70
2024/02/13 13:31:19;;;;;;;2.67;1.83;;;;;;;11.73;54.46;99629.69;6270129;28;20549;-70
2024/02/13 13:34:22;;;;;;;2.15;1.40;;;;;;;11.41;56.32;99623.22;6272773;28;20048;-71
2024/02/13 13:37:28;;;;;;;2.53;1.90;;;;;;;11.05;56.73;99634.47;6273631;28;20115;-70
2024/02/13 13:40:39;;;;;;;3.90;2.20;;;;;;;10.92;56.34;99636.28;6275214;28;20132;-70
2024/02/13 13:43:40;;;;;;;5.32;2.20;;;;;;;10.99;56.41;99640.13;6274697;28;20131;-71
2024/02/13 13:46:41;;;;;;;3.75;2.00;;;;;;;10.73;57.32;99645.38;6274841;28;20126;-71
2024/02/13 13:49:43;;;;;;;4.72;2.15;;;;;;;10.77;57.85;99643.34;6273212;28;20131;-71
2024/02/13 13:52:44;;;;;;;2.72;1.80;;;;;;;10.52;59.29;99641.59;6274555;28;20057;-70
2024/02/13 13:55:45;;;;;;;2.80;1.70;;;;;;;10.33;58.89;99645.41;6274361;28;20514;-70
2024/02/13 13:58:46;;;;;;;4.25;2.20;;;;;;;10.26;58.48;99657.19;6273237;28;20052;-71
2024/02/13 14:01:47;;;;;;;5.97;2.72;;;;;;;10.21;59.24;99649.66;6273158;28;20558;-76
2024/02/13 14:04:48;;;;;;;5.43;2.85;;;;;;;9.92;59.40;99648.94;6273315;28;20044;-76
2024/02/13 14:07:49;;;;;;;2.90;1.92;;;;;;;9.93;58.94;99657.63;6272976;28;20075;-76
2024/02/13 14:10:50;;;;;;;3.63;2.38;;;;;;;9.88;58.24;99657.88;6272710;28;20049;-76
2024/02/13 14:13:52;;;;;;;5.32;1.95;;;;;;;9.94;59.34;99646.25;6272913;28;20053;-76
2024/02/13 14:16:54;;;;;;;5.00;1.95;;;;;;;9.96;59.22;99663.44;6272691;28;20053;-76
2024/02/13 14:19:55;;;;;;;5.97;2.38;;;;;;;10.15;58.84;99670.94;6272825;28;20049;-76
2024/02/13 14:22:56;;;;;;;2.33;1.77;;;;;;;10.06;59.27;99661.09;6272622;28;20056;-76
2024/02/13 14:25:57;;;;;;;3.90;1.83;;;;;;;10.09;59.66;99673.94;6273692;28;20423;-76